sensor_id;sensor_type;location;lat;lon;timestamp;P1;durP1;ratioP1;P2;durP2;ratioP2
12990;SDS011;6560;57.692;11.958;2022-10-16T00:01:03;26.30;;;10.87;;
12990;SDS011;6560;57.692;11.958;2022-10-16T00:03:34;22.00;;;9.17;;
12990;SDS011;6560;57.692;11.958;2022-10-16T00:06:00;20.63;;;9.20;;
12990;SDS011;6560;57.692;11.958;2022-10-16T00:08:26;16.20;;;7.57;;
12990;SDS011;6560;57.692;11.958;2022-10-16T00:10:51;20.47;;;7.80;;
12990;SDS011;6560;57.692;11.958;2022-10-16T00:13:17;15.37;;;5.90;;
12990;SDS011;6560;57.692;11.958;2022-10-16T00:15:44;23.60;;;7.70;;
12990;SDS011;6560;57.692;11.958;2022-10-16T00:18:11;19.27;;;6.63;;
12990;SDS011;6560;57.692;11.958;2022-10-16T00:20:37;10.60;;;6.27;;
12990;SDS011;6560;57.692;11.958;2022-10-16T00:23:03;18.03;;;7.87;;
12990;SDS011;6560;57.692;11.958;2022-10-16T00:25:30;19.90;;;6.47;;
12990;SDS011;6560;57.692;11.958;2022-10-16T00:27:58;16.67;;;6.03;;
12990;SDS011;6560;57.692;11.958;2022-10-16T00:30:24;15.60;;;5.57;;
12990;SDS011;6560;57.692;11.958;2022-10-16T00:32:51;11.97;;;5.00;;
12990;SDS011;6560;57.692;11.958;2022-10-16T00:35:17;16.70;;;5.70;;
12990;SDS011;6560;57.692;11.958;2022-10-16T00:37:42;20.13;;;6.37;;
12990;SDS011;6560;57.692;11.958;2022-10-16T00:40:08;14.60;;;5.23;;
12990;SDS011;6560;57.692;11.958;2022-10-16T00:42:34;17.07;;;4.77;;
12990;SDS011;6560;57.692;11.958;2022-10-16T00:45:00;20.57;;;5.67;;
12990;SDS011;6560;57.692;11.958;2022-10-16T00:50:05;12.37;;;4.17;;
12990;SDS011;6560;57.692;11.958;2022-10-16T00:52:34;19.23;;;4.60;;
12990;SDS011;6560;57.692;11.958;2022-10-16T00:55:02;10.07;;;4.80;;
12990;SDS011;6560;57.692;11.958;2022-10-16T00:57:29;9.07;;;3.80;;
12990;SDS011;6560;57.692;11.958;2022-10-16T00:59:55;17.03;;;4.33;;
12990;SDS011;6560;57.692;11.958;2022-10-16T01:02:22;10.77;;;4.13;;
12990;SDS011;6560;57.692;11.958;2022-10-16T01:04:48;14.63;;;4.40;;
12990;SDS011;6560;57.692;11.958;2022-10-16T01:10:23;12.87;;;4.03;;
12990;SDS011;6560;57.692;11.958;2022-10-16T01:13:13;16.77;;;3.77;;
12990;SDS011;6560;57.692;11.958;2022-10-16T01:16:46;11.50;;;4.20;;
12990;SDS011;6560;57.692;11.958;2022-10-16T01:19:15;14.00;;;3.70;;
12990;SDS011;6560;57.692;11.958;2022-10-16T01:21:46;18.47;;;4.27;;
12990;SDS011;6560;57.692;11.958;2022-10-16T01:24:33;14.10;;;3.93;;
12990;SDS011;6560;57.692;11.958;2022-10-16T01:38:33;12.67;;;3.80;;
12990;SDS011;6560;57.692;11.958;2022-10-16T01:40:52;11.33;;;3.77;;
12990;SDS011;6560;57.692;11.958;2022-10-16T01:43:36;10.60;;;3.87;;
12990;SDS011;6560;57.692;11.958;2022-10-16T01:46:02;15.60;;;4.43;;
12990;SDS011;6560;57.692;11.958;2022-10-16T01:48:28;11.27;;;3.57;;
12990;SDS011;6560;57.692;11.958;2022-10-16T01:51:03;19.60;;;4.63;;
12990;SDS011;6560;57.692;11.958;2022-10-16T01:53:40;22.63;;;6.17;;
12990;SDS011;6560;57.692;11.958;2022-10-16T01:56:09;17.27;;;4.20;;
12990;SDS011;6560;57.692;11.958;2022-10-16T01:58:38;14.63;;;4.40;;
12990;SDS011;6560;57.692;11.958;2022-10-16T02:01:09;25.47;;;4.67;;
12990;SDS011;6560;57.692;11.958;2022-10-16T02:03:38;12.07;;;5.17;;
12990;SDS011;6560;57.692;11.958;2022-10-16T02:06:08;18.00;;;4.87;;
12990;SDS011;6560;57.692;11.958;2022-10-16T02:08:33;20.00;;;4.43;;
12990;SDS011;6560;57.692;11.958;2022-10-16T02:11:00;13.70;;;4.77;;
12990;SDS011;6560;57.692;11.958;2022-10-16T02:16:03;17.27;;;4.60;;
12990;SDS011;6560;57.692;11.958;2022-10-16T02:18:29;16.07;;;3.60;;
12990;SDS011;6560;57.692;11.958;2022-10-16T02:20:59;12.03;;;4.30;;
12990;SDS011;6560;57.692;11.958;2022-10-16T02:26:19;18.20;;;5.00;;
12990;SDS011;6560;57.692;11.958;2022-10-16T02:28:58;10.90;;;4.83;;
12990;SDS011;6560;57.692;11.958;2022-10-16T02:31:30;18.07;;;5.67;;
12990;SDS011;6560;57.692;11.958;2022-10-16T02:33:59;11.67;;;4.10;;
12990;SDS011;6560;57.692;11.958;2022-10-16T02:36:26;16.60;;;4.27;;
12990;SDS011;6560;57.692;11.958;2022-10-16T02:38:52;15.30;;;5.57;;
12990;SDS011;6560;57.692;11.958;2022-10-16T02:41:19;15.13;;;5.17;;
12990;SDS011;6560;57.692;11.958;2022-10-16T02:43:46;14.67;;;4.27;;
12990;SDS011;6560;57.692;11.958;2022-10-16T02:46:19;18.50;;;5.07;;
12990;SDS011;6560;57.692;11.958;2022-10-16T02:48:44;20.10;;;4.60;;
12990;SDS011;6560;57.692;11.958;2022-10-16T02:51:10;16.80;;;4.33;;
12990;SDS011;6560;57.692;11.958;2022-10-16T02:53:35;22.37;;;5.93;;
12990;SDS011;6560;57.692;11.958;2022-10-16T02:56:01;17.20;;;4.50;;
12990;SDS011;6560;57.692;11.958;2022-10-16T02:58:26;14.60;;;4.13;;
12990;SDS011;6560;57.692;11.958;2022-10-16T03:00:52;11.83;;;4.00;;
12990;SDS011;6560;57.692;11.958;2022-10-16T03:03:17;12.87;;;4.30;;
12990;SDS011;6560;57.692;11.958;2022-10-16T03:05:43;20.43;;;5.97;;
12990;SDS011;6560;57.692;11.958;2022-10-16T03:08:11;15.80;;;4.47;;
12990;SDS011;6560;57.692;11.958;2022-10-16T03:10:36;21.33;;;6.20;;
12990;SDS011;6560;57.692;11.958;2022-10-16T03:13:02;12.43;;;4.70;;
12990;SDS011;6560;57.692;11.958;2022-10-16T03:15:27;15.83;;;4.83;;
12990;SDS011;6560;57.692;11.958;2022-10-16T03:17:54;16.20;;;5.70;;
12990;SDS011;6560;57.692;11.958;2022-10-16T03:20:20;15.07;;;4.53;;
12990;SDS011;6560;57.692;11.958;2022-10-16T03:22:45;13.77;;;4.60;;
12990;SDS011;6560;57.692;11.958;2022-10-16T03:25:11;16.37;;;5.10;;
12990;SDS011;6560;57.692;11.958;2022-10-16T03:27:36;20.40;;;5.43;;
12990;SDS011;6560;57.692;11.958;2022-10-16T03:30:02;15.33;;;4.50;;
12990;SDS011;6560;57.692;11.958;2022-10-16T03:32:28;20.10;;;5.90;;
12990;SDS011;6560;57.692;11.958;2022-10-16T03:34:53;24.87;;;6.30;;
12990;SDS011;6560;57.692;11.958;2022-10-16T03:37:21;10.73;;;3.73;;
12990;SDS011;6560;57.692;11.958;2022-10-16T03:39:49;14.50;;;4.07;;
12990;SDS011;6560;57.692;11.958;2022-10-16T03:42:14;16.93;;;5.73;;
12990;SDS011;6560;57.692;11.958;2022-10-16T03:44:39;13.00;;;4.37;;
12990;SDS011;6560;57.692;11.958;2022-10-16T03:47:05;15.97;;;4.90;;
12990;SDS011;6560;57.692;11.958;2022-10-16T03:49:30;29.57;;;6.03;;
12990;SDS011;6560;57.692;11.958;2022-10-16T03:51:56;19.57;;;5.33;;
12990;SDS011;6560;57.692;11.958;2022-10-16T03:54:21;17.93;;;4.67;;
12990;SDS011;6560;57.692;11.958;2022-10-16T03:56:47;11.13;;;4.20;;
12990;SDS011;6560;57.692;11.958;2022-10-16T03:59:13;13.70;;;4.80;;
12990;SDS011;6560;57.692;11.958;2022-10-16T04:01:38;13.83;;;4.37;;
12990;SDS011;6560;57.692;11.958;2022-10-16T04:04:04;15.43;;;4.60;;
12990;SDS011;6560;57.692;11.958;2022-10-16T04:06:29;20.00;;;4.83;;
12990;SDS011;6560;57.692;11.958;2022-10-16T04:08:55;15.87;;;5.20;;
12990;SDS011;6560;57.692;11.958;2022-10-16T04:11:21;18.30;;;4.60;;
12990;SDS011;6560;57.692;11.958;2022-10-16T04:13:49;16.40;;;4.83;;
12990;SDS011;6560;57.692;11.958;2022-10-16T04:16:15;12.13;;;4.23;;
12990;SDS011;6560;57.692;11.958;2022-10-16T04:18:41;17.07;;;5.30;;
12990;SDS011;6560;57.692;11.958;2022-10-16T04:21:06;21.03;;;5.90;;
12990;SDS011;6560;57.692;11.958;2022-10-16T04:23:32;17.57;;;5.00;;
12990;SDS011;6560;57.692;11.958;2022-10-16T04:25:58;13.53;;;4.27;;
12990;SDS011;6560;57.692;11.958;2022-10-16T04:28:24;11.47;;;4.53;;
12990;SDS011;6560;57.692;11.958;2022-10-16T04:30:50;18.97;;;4.40;;
12990;SDS011;6560;57.692;11.958;2022-10-16T04:33:15;13.40;;;4.60;;
12990;SDS011;6560;57.692;11.958;2022-10-16T04:35:41;15.47;;;5.13;;
12990;SDS011;6560;57.692;11.958;2022-10-16T04:38:06;17.57;;;4.77;;
12990;SDS011;6560;57.692;11.958;2022-10-16T04:40:32;16.60;;;4.33;;
12990;SDS011;6560;57.692;11.958;2022-10-16T04:42:58;17.37;;;4.57;;
12990;SDS011;6560;57.692;11.958;2022-10-16T04:45:24;15.93;;;4.80;;
12990;SDS011;6560;57.692;11.958;2022-10-16T04:47:50;16.47;;;5.00;;
12990;SDS011;6560;57.692;11.958;2022-10-16T04:50:15;18.07;;;4.80;;
12990;SDS011;6560;57.692;11.958;2022-10-16T04:52:41;18.87;;;5.20;;
12990;SDS011;6560;57.692;11.958;2022-10-16T04:55:06;20.60;;;5.50;;
12990;SDS011;6560;57.692;11.958;2022-10-16T04:57:32;15.10;;;4.93;;
12990;SDS011;6560;57.692;11.958;2022-10-16T04:59:58;20.20;;;5.87;;
12990;SDS011;6560;57.692;11.958;2022-10-16T05:02:24;22.40;;;6.40;;
12990;SDS011;6560;57.692;11.958;2022-10-16T05:04:49;30.43;;;6.03;;
12990;SDS011;6560;57.692;11.958;2022-10-16T05:07:15;31.53;;;6.87;;
12990;SDS011;6560;57.692;11.958;2022-10-16T05:09:41;17.47;;;5.83;;
12990;SDS011;6560;57.692;11.958;2022-10-16T05:12:06;20.23;;;6.07;;
12990;SDS011;6560;57.692;11.958;2022-10-16T05:14:32;22.30;;;6.10;;
12990;SDS011;6560;57.692;11.958;2022-10-16T05:16:58;22.80;;;6.63;;
12990;SDS011;6560;57.692;11.958;2022-10-16T05:19:25;32.73;;;6.40;;
12990;SDS011;6560;57.692;11.958;2022-10-16T05:21:50;17.70;;;5.87;;
12990;SDS011;6560;57.692;11.958;2022-10-16T05:24:16;20.20;;;7.27;;
12990;SDS011;6560;57.692;11.958;2022-10-16T05:26:41;18.67;;;6.33;;
12990;SDS011;6560;57.692;11.958;2022-10-16T05:29:07;30.27;;;7.47;;
12990;SDS011;6560;57.692;11.958;2022-10-16T05:31:32;16.17;;;5.97;;
12990;SDS011;6560;57.692;11.958;2022-10-16T05:34:00;24.63;;;6.77;;
12990;SDS011;6560;57.692;11.958;2022-10-16T05:36:27;25.77;;;6.97;;
12990;SDS011;6560;57.692;11.958;2022-10-16T05:38:53;21.37;;;7.20;;
12990;SDS011;6560;57.692;11.958;2022-10-16T05:41:18;19.00;;;6.87;;
12990;SDS011;6560;57.692;11.958;2022-10-16T05:43:48;17.67;;;6.63;;
12990;SDS011;6560;57.692;11.958;2022-10-16T05:46:14;15.73;;;5.70;;
12990;SDS011;6560;57.692;11.958;2022-10-16T05:48:40;18.70;;;6.40;;
12990;SDS011;6560;57.692;11.958;2022-10-16T05:51:06;27.07;;;7.40;;
12990;SDS011;6560;57.692;11.958;2022-10-16T05:53:34;17.87;;;6.63;;
12990;SDS011;6560;57.692;11.958;2022-10-16T05:56:00;19.00;;;7.63;;
12990;SDS011;6560;57.692;11.958;2022-10-16T05:58:33;22.13;;;9.13;;
12990;SDS011;6560;57.692;11.958;2022-10-16T06:01:01;23.93;;;8.57;;
12990;SDS011;6560;57.692;11.958;2022-10-16T06:03:29;20.27;;;7.10;;
12990;SDS011;6560;57.692;11.958;2022-10-16T06:05:55;25.63;;;7.63;;
12990;SDS011;6560;57.692;11.958;2022-10-16T06:08:21;20.27;;;9.13;;
12990;SDS011;6560;57.692;11.958;2022-10-16T06:10:47;23.87;;;9.03;;
12990;SDS011;6560;57.692;11.958;2022-10-16T06:13:14;33.67;;;10.20;;
12990;SDS011;6560;57.692;11.958;2022-10-16T06:15:41;26.53;;;10.03;;
12990;SDS011;6560;57.692;11.958;2022-10-16T06:18:10;25.33;;;10.00;;
12990;SDS011;6560;57.692;11.958;2022-10-16T06:20:36;26.90;;;9.80;;
12990;SDS011;6560;57.692;11.958;2022-10-16T06:23:02;21.93;;;8.37;;
12990;SDS011;6560;57.692;11.958;2022-10-16T06:25:29;24.60;;;9.30;;
12990;SDS011;6560;57.692;11.958;2022-10-16T06:27:55;17.23;;;8.47;;
12990;SDS011;6560;57.692;11.958;2022-10-16T06:30:20;25.00;;;9.23;;
12990;SDS011;6560;57.692;11.958;2022-10-16T06:32:46;20.93;;;8.07;;
12990;SDS011;6560;57.692;11.958;2022-10-16T06:35:11;26.87;;;9.60;;
12990;SDS011;6560;57.692;11.958;2022-10-16T06:37:37;15.50;;;8.03;;
12990;SDS011;6560;57.692;11.958;2022-10-16T06:40:02;17.23;;;8.40;;
12990;SDS011;6560;57.692;11.958;2022-10-16T06:42:29;20.00;;;7.80;;
12990;SDS011;6560;57.692;11.958;2022-10-16T06:44:54;17.53;;;7.70;;
12990;SDS011;6560;57.692;11.958;2022-10-16T06:47:20;21.33;;;7.67;;
12990;SDS011;6560;57.692;11.958;2022-10-16T06:49:45;16.70;;;6.90;;
12990;SDS011;6560;57.692;11.958;2022-10-16T06:52:11;13.47;;;6.60;;
12990;SDS011;6560;57.692;11.958;2022-10-16T06:54:36;18.63;;;6.37;;
12990;SDS011;6560;57.692;11.958;2022-10-16T06:57:02;12.60;;;5.80;;
12990;SDS011;6560;57.692;11.958;2022-10-16T06:59:27;13.80;;;5.37;;
12990;SDS011;6560;57.692;11.958;2022-10-16T07:01:59;17.83;;;5.47;;
12990;SDS011;6560;57.692;11.958;2022-10-16T07:04:24;15.87;;;4.93;;
12990;SDS011;6560;57.692;11.958;2022-10-16T07:06:49;13.63;;;5.07;;
12990;SDS011;6560;57.692;11.958;2022-10-16T07:09:16;11.97;;;4.67;;
12990;SDS011;6560;57.692;11.958;2022-10-16T07:11:42;16.00;;;5.13;;
12990;SDS011;6560;57.692;11.958;2022-10-16T07:14:12;7.37;;;3.60;;
12990;SDS011;6560;57.692;11.958;2022-10-16T07:16:42;10.60;;;4.73;;
12990;SDS011;6560;57.692;11.958;2022-10-16T07:19:07;10.23;;;4.40;;
12990;SDS011;6560;57.692;11.958;2022-10-16T07:21:33;14.10;;;5.07;;
12990;SDS011;6560;57.692;11.958;2022-10-16T07:24:03;11.83;;;4.57;;
12990;SDS011;6560;57.692;11.958;2022-10-16T07:26:31;13.80;;;4.40;;
12990;SDS011;6560;57.692;11.958;2022-10-16T07:28:58;9.63;;;3.90;;
12990;SDS011;6560;57.692;11.958;2022-10-16T07:31:24;11.17;;;3.70;;
12990;SDS011;6560;57.692;11.958;2022-10-16T07:33:50;13.93;;;4.43;;
12990;SDS011;6560;57.692;11.958;2022-10-16T07:36:17;14.50;;;3.70;;
12990;SDS011;6560;57.692;11.958;2022-10-16T07:38:45;12.20;;;3.80;;
12990;SDS011;6560;57.692;11.958;2022-10-16T07:41:12;16.33;;;3.70;;
12990;SDS011;6560;57.692;11.958;2022-10-16T07:43:39;12.23;;;3.83;;
12990;SDS011;6560;57.692;11.958;2022-10-16T07:46:05;13.87;;;3.50;;
12990;SDS011;6560;57.692;11.958;2022-10-16T07:48:32;14.87;;;4.30;;
12990;SDS011;6560;57.692;11.958;2022-10-16T07:50:59;11.47;;;4.20;;
12990;SDS011;6560;57.692;11.958;2022-10-16T07:53:26;19.77;;;4.87;;
12990;SDS011;6560;57.692;11.958;2022-10-16T07:55:52;13.33;;;3.93;;
12990;SDS011;6560;57.692;11.958;2022-10-16T07:58:22;12.73;;;4.20;;
12990;SDS011;6560;57.692;11.958;2022-10-16T08:00:47;24.50;;;5.47;;
12990;SDS011;6560;57.692;11.958;2022-10-16T08:03:13;14.73;;;4.20;;
12990;SDS011;6560;57.692;11.958;2022-10-16T08:05:38;16.03;;;4.63;;
12990;SDS011;6560;57.692;11.958;2022-10-16T08:08:04;21.70;;;6.20;;
12990;SDS011;6560;57.692;11.958;2022-10-16T08:10:29;19.57;;;5.70;;
12990;SDS011;6560;57.692;11.958;2022-10-16T08:12:56;14.73;;;4.40;;
12990;SDS011;6560;57.692;11.958;2022-10-16T08:15:22;17.27;;;4.53;;
12990;SDS011;6560;57.692;11.958;2022-10-16T08:17:54;15.77;;;3.90;;
12990;SDS011;6560;57.692;11.958;2022-10-16T08:20:24;9.63;;;3.63;;
12990;SDS011;6560;57.692;11.958;2022-10-16T08:22:51;19.27;;;5.37;;
12990;SDS011;6560;57.692;11.958;2022-10-16T08:25:16;19.53;;;5.70;;
12990;SDS011;6560;57.692;11.958;2022-10-16T08:27:41;16.57;;;4.83;;
12990;SDS011;6560;57.692;11.958;2022-10-16T08:30:07;18.63;;;5.53;;
12990;SDS011;6560;57.692;11.958;2022-10-16T08:32:33;21.27;;;5.38;;
12990;SDS011;6560;57.692;11.958;2022-10-16T08:34:59;17.52;;;5.10;;
12990;SDS011;6560;57.692;11.958;2022-10-16T08:37:24;11.82;;;4.05;;
12990;SDS011;6560;57.692;11.958;2022-10-16T08:39:50;13.30;;;4.20;;
12990;SDS011;6560;57.692;11.958;2022-10-16T08:42:19;18.33;;;4.07;;
12990;SDS011;6560;57.692;11.958;2022-10-16T08:45:10;16.90;;;3.78;;
12990;SDS011;6560;57.692;11.958;2022-10-16T08:47:49;22.08;;;3.90;;
12990;SDS011;6560;57.692;11.958;2022-10-16T08:50:43;19.67;;;4.17;;
12990;SDS011;6560;57.692;11.958;2022-10-16T08:53:22;19.17;;;5.13;;
12990;SDS011;6560;57.692;11.958;2022-10-16T08:55:53;13.35;;;4.30;;
12990;SDS011;6560;57.692;11.958;2022-10-16T08:58:20;17.17;;;4.00;;
12990;SDS011;6560;57.692;11.958;2022-10-16T09:00:55;12.67;;;4.10;;
12990;SDS011;6560;57.692;11.958;2022-10-16T09:14:07;16.45;;;4.72;;
12990;SDS011;6560;57.692;11.958;2022-10-16T09:19:37;14.95;;;5.35;;
12990;SDS011;6560;57.692;11.958;2022-10-16T09:22:16;15.63;;;4.13;;
12990;SDS011;6560;57.692;11.958;2022-10-16T09:24:42;14.32;;;3.72;;
12990;SDS011;6560;57.692;11.958;2022-10-16T09:27:11;16.20;;;3.53;;
12990;SDS011;6560;57.692;11.958;2022-10-16T09:29:39;17.08;;;4.55;;
12990;SDS011;6560;57.692;11.958;2022-10-16T09:32:16;16.63;;;5.28;;
12990;SDS011;6560;57.692;11.958;2022-10-16T09:34:48;22.80;;;5.03;;
12990;SDS011;6560;57.692;11.958;2022-10-16T09:37:18;18.63;;;4.85;;
12990;SDS011;6560;57.692;11.958;2022-10-16T09:39:54;15.88;;;4.68;;
12990;SDS011;6560;57.692;11.958;2022-10-16T09:42:21;23.00;;;4.37;;
12990;SDS011;6560;57.692;11.958;2022-10-16T09:44:51;17.90;;;4.00;;
12990;SDS011;6560;57.692;11.958;2022-10-16T09:47:19;19.57;;;4.03;;
12990;SDS011;6560;57.692;11.958;2022-10-16T09:49:58;23.58;;;5.13;;
12990;SDS011;6560;57.692;11.958;2022-10-16T09:52:31;17.10;;;3.60;;
12990;SDS011;6560;57.692;11.958;2022-10-16T09:54:59;16.42;;;3.72;;
12990;SDS011;6560;57.692;11.958;2022-10-16T09:57:48;16.02;;;4.47;;
12990;SDS011;6560;57.692;11.958;2022-10-16T10:00:15;16.50;;;4.55;;
12990;SDS011;6560;57.692;11.958;2022-10-16T10:02:41;16.55;;;4.90;;
12990;SDS011;6560;57.692;11.958;2022-10-16T10:05:17;12.88;;;3.97;;
12990;SDS011;6560;57.692;11.958;2022-10-16T10:07:52;16.77;;;4.40;;
12990;SDS011;6560;57.692;11.958;2022-10-16T10:10:21;17.70;;;3.92;;
12990;SDS011;6560;57.692;11.958;2022-10-16T10:12:48;14.13;;;3.60;;
12990;SDS011;6560;57.692;11.958;2022-10-16T10:15:14;21.98;;;5.00;;
12990;SDS011;6560;57.692;11.958;2022-10-16T10:17:56;18.10;;;3.67;;
12990;SDS011;6560;57.692;11.958;2022-10-16T10:20:30;18.98;;;4.63;;
12990;SDS011;6560;57.692;11.958;2022-10-16T10:22:59;14.75;;;4.30;;
12990;SDS011;6560;57.692;11.958;2022-10-16T10:30:59;15.68;;;4.03;;
12990;SDS011;6560;57.692;11.958;2022-10-16T10:33:37;14.07;;;3.50;;
12990;SDS011;6560;57.692;11.958;2022-10-16T10:39:08;14.75;;;3.15;;
12990;SDS011;6560;57.692;11.958;2022-10-16T10:44:48;11.55;;;3.22;;
12990;SDS011;6560;57.692;11.958;2022-10-16T10:47:26;21.20;;;4.50;;
12990;SDS011;6560;57.692;11.958;2022-10-16T10:50:34;20.70;;;4.38;;
12990;SDS011;6560;57.692;11.958;2022-10-16T10:58:24;14.90;;;4.53;;
12990;SDS011;6560;57.692;11.958;2022-10-16T11:01:14;23.55;;;5.70;;
12990;SDS011;6560;57.692;11.958;2022-10-16T11:03:50;24.77;;;5.05;;
12990;SDS011;6560;57.692;11.958;2022-10-16T11:06:30;18.15;;;5.00;;
12990;SDS011;6560;57.692;11.958;2022-10-16T11:09:17;15.57;;;4.43;;
12990;SDS011;6560;57.692;11.958;2022-10-16T11:11:51;20.27;;;5.37;;
12990;SDS011;6560;57.692;11.958;2022-10-16T11:14:43;22.33;;;6.55;;
12990;SDS011;6560;57.692;11.958;2022-10-16T11:17:25;25.20;;;4.80;;
12990;SDS011;6560;57.692;11.958;2022-10-16T11:22:27;17.75;;;4.78;;
12990;SDS011;6560;57.692;11.958;2022-10-16T11:27:36;11.68;;;3.95;;
12990;SDS011;6560;57.692;11.958;2022-10-16T11:30:06;17.80;;;5.32;;
12990;SDS011;6560;57.692;11.958;2022-10-16T11:33:24;16.48;;;4.28;;
12990;SDS011;6560;57.692;11.958;2022-10-16T11:35:40;17.38;;;4.78;;
12990;SDS011;6560;57.692;11.958;2022-10-16T11:38:19;15.57;;;4.47;;
12990;SDS011;6560;57.692;11.958;2022-10-16T11:40:56;19.45;;;5.10;;
12990;SDS011;6560;57.692;11.958;2022-10-16T11:43:28;14.38;;;4.70;;
12990;SDS011;6560;57.692;11.958;2022-10-16T11:46:17;22.42;;;4.93;;
12990;SDS011;6560;57.692;11.958;2022-10-16T11:48:48;17.92;;;4.55;;
12990;SDS011;6560;57.692;11.958;2022-10-16T11:54:51;16.30;;;4.38;;
12990;SDS011;6560;57.692;11.958;2022-10-16T11:57:22;15.05;;;4.18;;
12990;SDS011;6560;57.692;11.958;2022-10-16T12:08:16;16.73;;;3.27;;
12990;SDS011;6560;57.692;11.958;2022-10-16T12:10:45;20.10;;;4.07;;
12990;SDS011;6560;57.692;11.958;2022-10-16T12:18:37;26.23;;;5.47;;
12990;SDS011;6560;57.692;11.958;2022-10-16T12:21:04;27.67;;;5.57;;
12990;SDS011;6560;57.692;11.958;2022-10-16T12:23:53;24.10;;;4.97;;
12990;SDS011;6560;57.692;11.958;2022-10-16T12:26:33;19.73;;;4.43;;
12990;SDS011;6560;57.692;11.958;2022-10-16T12:31:53;18.93;;;5.00;;
12990;SDS011;6560;57.692;11.958;2022-10-16T12:39:48;23.47;;;4.67;;
12990;SDS011;6560;57.692;11.958;2022-10-16T12:44:53;27.07;;;4.50;;
12990;SDS011;6560;57.692;11.958;2022-10-16T12:47:23;17.63;;;3.80;;
12990;SDS011;6560;57.692;11.958;2022-10-16T12:49:53;15.53;;;3.40;;
12990;SDS011;6560;57.692;11.958;2022-10-16T12:52:34;20.33;;;3.37;;
12990;SDS011;6560;57.692;11.958;2022-10-16T12:55:04;20.50;;;3.47;;
12990;SDS011;6560;57.692;11.958;2022-10-16T13:06:04;23.53;;;3.57;;
12990;SDS011;6560;57.692;11.958;2022-10-16T13:09:22;17.63;;;3.83;;
12990;SDS011;6560;57.692;11.958;2022-10-16T13:14:39;15.87;;;3.17;;
12990;SDS011;6560;57.692;11.958;2022-10-16T13:20:19;14.37;;;3.17;;
12990;SDS011;6560;57.692;11.958;2022-10-16T13:26:23;12.37;;;3.60;;
12990;SDS011;6560;57.692;11.958;2022-10-16T13:28:59;13.33;;;3.13;;
12990;SDS011;6560;57.692;11.958;2022-10-16T13:31:26;15.77;;;2.77;;
12990;SDS011;6560;57.692;11.958;2022-10-16T13:33:54;10.60;;;2.37;;
12990;SDS011;6560;57.692;11.958;2022-10-16T13:36:35;5.37;;;2.27;;
12990;SDS011;6560;57.692;11.958;2022-10-16T13:42:06;11.50;;;2.63;;
12990;SDS011;6560;57.692;11.958;2022-10-16T13:44:43;10.03;;;2.20;;
12990;SDS011;6560;57.692;11.958;2022-10-16T13:47:18;10.33;;;2.53;;
12990;SDS011;6560;57.692;11.958;2022-10-16T13:50:04;14.33;;;4.00;;
12990;SDS011;6560;57.692;11.958;2022-10-16T13:52:32;11.17;;;3.37;;
12990;SDS011;6560;57.692;11.958;2022-10-16T13:54:57;10.07;;;3.00;;
12990;SDS011;6560;57.692;11.958;2022-10-16T13:57:23;14.40;;;3.13;;
12990;SDS011;6560;57.692;11.958;2022-10-16T13:59:49;10.30;;;2.50;;
12990;SDS011;6560;57.692;11.958;2022-10-16T14:02:25;14.07;;;3.00;;
12990;SDS011;6560;57.692;11.958;2022-10-16T14:04:54;13.70;;;3.03;;
12990;SDS011;6560;57.692;11.958;2022-10-16T14:07:23;8.30;;;2.60;;
12990;SDS011;6560;57.692;11.958;2022-10-16T14:09:51;7.87;;;2.97;;
12990;SDS011;6560;57.692;11.958;2022-10-16T14:12:17;13.57;;;3.13;;
12990;SDS011;6560;57.692;11.958;2022-10-16T14:14:44;16.67;;;3.30;;
12990;SDS011;6560;57.692;11.958;2022-10-16T14:17:45;14.10;;;3.70;;
12990;SDS011;6560;57.692;11.958;2022-10-16T14:20:12;10.93;;;2.67;;
12990;SDS011;6560;57.692;11.958;2022-10-16T14:22:41;12.80;;;3.70;;
12990;SDS011;6560;57.692;11.958;2022-10-16T14:27:44;10.83;;;2.63;;
12990;SDS011;6560;57.692;11.958;2022-10-16T14:30:16;15.70;;;3.17;;
12990;SDS011;6560;57.692;11.958;2022-10-16T14:32:57;9.53;;;3.07;;
12990;SDS011;6560;57.692;11.958;2022-10-16T14:35:32;12.10;;;3.93;;
12990;SDS011;6560;57.692;11.958;2022-10-16T14:38:03;15.80;;;3.43;;
12990;SDS011;6560;57.692;11.958;2022-10-16T14:40:33;13.03;;;2.80;;
12990;SDS011;6560;57.692;11.958;2022-10-16T14:43:03;11.57;;;2.90;;
12990;SDS011;6560;57.692;11.958;2022-10-16T14:45:31;14.20;;;3.77;;
12990;SDS011;6560;57.692;11.958;2022-10-16T14:48:01;11.43;;;3.90;;
12990;SDS011;6560;57.692;11.958;2022-10-16T14:50:29;16.07;;;3.37;;
12990;SDS011;6560;57.692;11.958;2022-10-16T14:52:55;13.57;;;4.00;;
12990;SDS011;6560;57.692;11.958;2022-10-16T14:55:21;11.70;;;3.60;;
12990;SDS011;6560;57.692;11.958;2022-10-16T14:57:46;13.10;;;3.23;;
12990;SDS011;6560;57.692;11.958;2022-10-16T15:02:46;13.70;;;3.37;;
12990;SDS011;6560;57.692;11.958;2022-10-16T15:05:18;15.97;;;3.40;;
12990;SDS011;6560;57.692;11.958;2022-10-16T15:07:45;20.10;;;3.80;;
12990;SDS011;6560;57.692;11.958;2022-10-16T15:10:12;10.97;;;3.43;;
12990;SDS011;6560;57.692;11.958;2022-10-16T15:12:45;18.43;;;3.47;;
12990;SDS011;6560;57.692;11.958;2022-10-16T15:17:50;17.00;;;4.30;;
12990;SDS011;6560;57.692;11.958;2022-10-16T15:20:22;16.70;;;3.83;;
12990;SDS011;6560;57.692;11.958;2022-10-16T15:22:49;20.57;;;4.07;;
12990;SDS011;6560;57.692;11.958;2022-10-16T15:28:07;20.07;;;4.63;;
12990;SDS011;6560;57.692;11.958;2022-10-16T15:30:33;15.13;;;4.00;;
12990;SDS011;6560;57.692;11.958;2022-10-16T15:32:59;19.20;;;4.37;;
12990;SDS011;6560;57.692;11.958;2022-10-16T15:35:25;25.17;;;5.67;;
12990;SDS011;6560;57.692;11.958;2022-10-16T15:37:50;13.70;;;2.83;;
12990;SDS011;6560;57.692;11.958;2022-10-16T15:40:16;13.73;;;3.50;;
12990;SDS011;6560;57.692;11.958;2022-10-16T15:42:43;22.70;;;4.00;;
12990;SDS011;6560;57.692;11.958;2022-10-16T15:45:09;22.87;;;3.87;;
12990;SDS011;6560;57.692;11.958;2022-10-16T15:47:35;13.47;;;3.47;;
12990;SDS011;6560;57.692;11.958;2022-10-16T15:50:01;9.73;;;3.37;;
12990;SDS011;6560;57.692;11.958;2022-10-16T15:52:26;16.97;;;3.30;;
12990;SDS011;6560;57.692;11.958;2022-10-16T15:54:53;12.27;;;2.73;;
12990;SDS011;6560;57.692;11.958;2022-10-16T15:57:19;17.10;;;3.73;;
12990;SDS011;6560;57.692;11.958;2022-10-16T15:59:45;14.40;;;4.10;;
12990;SDS011;6560;57.692;11.958;2022-10-16T16:02:10;18.33;;;3.77;;
12990;SDS011;6560;57.692;11.958;2022-10-16T16:04:36;16.63;;;4.90;;
12990;SDS011;6560;57.692;11.958;2022-10-16T16:07:02;10.97;;;3.10;;
12990;SDS011;6560;57.692;11.958;2022-10-16T16:09:30;18.73;;;4.07;;
12990;SDS011;6560;57.692;11.958;2022-10-16T16:11:55;10.57;;;3.20;;
12990;SDS011;6560;57.692;11.958;2022-10-16T16:14:23;19.67;;;4.20;;
12990;SDS011;6560;57.692;11.958;2022-10-16T16:16:50;14.50;;;4.00;;
12990;SDS011;6560;57.692;11.958;2022-10-16T16:19:15;11.73;;;3.17;;
12990;SDS011;6560;57.692;11.958;2022-10-16T16:21:45;17.27;;;3.30;;
12990;SDS011;6560;57.692;11.958;2022-10-16T16:24:11;14.90;;;3.70;;
12990;SDS011;6560;57.692;11.958;2022-10-16T16:26:36;17.57;;;3.73;;
12990;SDS011;6560;57.692;11.958;2022-10-16T16:29:04;15.07;;;3.50;;
12990;SDS011;6560;57.692;11.958;2022-10-16T16:31:31;11.63;;;2.90;;
12990;SDS011;6560;57.692;11.958;2022-10-16T16:33:58;14.53;;;4.13;;
12990;SDS011;6560;57.692;11.958;2022-10-16T16:36:24;16.60;;;3.67;;
12990;SDS011;6560;57.692;11.958;2022-10-16T16:38:50;11.73;;;3.00;;
12990;SDS011;6560;57.692;11.958;2022-10-16T16:41:23;12.73;;;3.30;;
12990;SDS011;6560;57.692;11.958;2022-10-16T16:43:50;11.90;;;3.80;;
12990;SDS011;6560;57.692;11.958;2022-10-16T16:46:16;11.60;;;4.07;;